Time;durP1;ratioP1;P1;durP2;ratioP2;P2;SDS_P1;SDS_P2;PMS_P1;PMS_P2;Temp;Humidity;BMP_temperature;BMP_pressure;BME280_temperature;BME280_humidity;BME280_pressure;Samples;Min_cycle;Max_cycle;Signal;HPM_P1;HPM_P2
2022/01/24 00:01:50;;;;;;;171.10;72.05;;;-0.40;99.90;;;;;;5094592;28;20123;-63
2022/01/24 00:04:16;;;;;;;190.15;80.10;;;-0.40;99.90;;;;;;5095061;28;20283;-62
2022/01/24 00:06:42;;;;;;;189.13;75.95;;;-0.40;99.90;;;;;;5095019;28;20094;-62
2022/01/24 00:09:11;;;;;;;207.85;80.70;;;-0.30;99.90;;;;;;5094651;28;20451;-62
2022/01/24 00:11:46;;;;;;;204.38;82.35;;;-0.40;99.90;;;;;;5094558;28;20033;-63
2022/01/24 00:27:23;;;;;;;187.70;78.18;;;-0.60;99.90;;;;;;5094873;28;20039;-63
2022/01/24 00:29:49;;;;;;;171.03;74.20;;;-0.50;99.90;;;;;;5076046;28;20402;-62
2022/01/24 00:32:16;;;;;;;178.40;73.73;;;-0.50;99.90;;;;;;5094156;28;20086;-61
2022/01/24 00:34:42;;;;;;;178.68;71.10;;;-0.50;99.90;;;;;;5093568;28;20028;-62
2022/01/24 00:37:08;;;;;;;179.75;76.47;;;-0.50;99.90;;;;;;5075872;28;20058;-61
2022/01/24 00:39:34;;;;;;;170.60;71.05;;;-0.60;99.90;;;;;;5094023;28;20093;-61
2022/01/24 00:42:17;;;;;;;165.30;70.63;;;-0.60;99.90;;;;;;5093908;28;20043;-62
2022/01/24 00:45:08;;;;;;;191.13;75.13;;;-0.70;99.90;;;;;;5093895;28;20055;-61
2022/01/24 00:53:12;;;;;;;165.18;71.07;;;-0.80;99.90;;;;;;5092766;28;20565;-62
2022/01/24 00:55:39;;;;;;;177.53;71.13;;;-0.90;99.90;;;;;;5089235;28;20470;-63
2022/01/24 00:58:06;;;;;;;142.07;62.90;;;-0.90;99.90;;;;;;5093572;28;20032;-63
2022/01/24 01:00:32;;;;;;;152.33;64.97;;;-0.90;99.90;;;;;;5075436;28;20047;-62
2022/01/24 01:02:58;;;;;;;156.20;67.67;;;-1.00;99.90;;;;;;5074796;28;20083;-63
2022/01/24 01:08:00;;;;;;;170.20;68.33;;;-1.10;99.90;;;;;;5093757;28;20047;-62
2022/01/24 01:18:42;;;;;;;165.13;68.03;;;-1.20;99.90;;;;;;5093119;28;20050;-62
2022/01/24 01:21:14;;;;;;;205.70;75.00;;;-1.30;99.90;;;;;;5074986;28;20043;-63
2022/01/24 01:23:47;;;;;;;212.53;83.40;;;-1.30;99.90;;;;;;5093206;28;20032;-63
2022/01/24 01:26:26;;;;;;;210.67;79.20;;;-1.20;99.90;;;;;;5073927;28;20123;-62
2022/01/24 01:29:01;;;;;;;206.53;76.33;;;-1.20;99.90;;;;;;5074700;28;20043;-62
2022/01/24 01:31:40;;;;;;;199.47;77.50;;;-1.20;99.90;;;;;;5074725;28;20105;-62
2022/01/24 01:34:26;;;;;;;199.67;79.53;;;-1.20;99.90;;;;;;5073883;28;20461;-64
2022/01/24 01:39:50;;;;;;;187.23;74.67;;;-1.20;99.90;;;;;;5090021;28;20415;-62
2022/01/24 01:55:59;;;;;;;204.27;85.40;;;-0.90;99.90;;;;;;5092915;28;20089;-63
2022/01/24 01:58:25;;;;;;;222.07;89.80;;;-0.80;99.90;;;;;;5092632;28;20086;-64
2022/01/24 02:00:55;;;;;;;257.93;101.90;;;-0.70;99.90;;;;;;5092510;28;20032;-63
2022/01/24 02:03:22;;;;;;;245.77;96.40;;;-0.70;99.90;;;;;;5092601;28;20097;-64
2022/01/24 02:05:48;;;;;;;286.40;111.20;;;-0.70;99.90;;;;;;5074423;28;20040;-62
2022/01/24 02:08:15;;;;;;;273.13;107.90;;;-0.90;99.90;;;;;;5074413;28;20036;-63
2022/01/24 02:10:43;;;;;;;284.50;106.10;;;-1.10;99.90;;;;;;5092158;28;20515;-64
2022/01/24 02:13:10;;;;;;;252.60;110.30;;;-1.00;99.90;;;;;;5092154;28;20474;-64
2022/01/24 02:18:30;;;;;;;268.70;108.40;;;-1.10;99.90;;;;;;5092293;28;20036;-63
2022/01/24 02:23:47;;;;;;;266.63;107.87;;;-0.90;99.90;;;;;;5092665;28;20095;-64
2022/01/24 02:26:20;;;;;;;248.40;101.80;;;-0.80;99.90;;;;;;5074251;28;20043;-64
2022/01/24 02:33:55;;;;;;;222.73;87.73;;;-0.90;99.90;;;;;;5078836;28;20040;-63
2022/01/24 02:36:24;;;;;;;257.17;102.97;;;-0.80;99.90;;;;;;5095570;28;20566;-63
2022/01/24 02:49:34;;;;;;;281.33;118.53;;;-0.60;99.90;;;;;;5084101;28;20039;-64
2022/01/24 02:52:10;;;;;;;287.90;120.38;;;-0.60;99.90;;;;;;5091943;28;20473;-63
2022/01/24 02:54:37;;;;;;;271.05;122.60;;;-0.60;99.90;;;;;;5089144;28;20039;-64
2022/01/24 02:57:05;;;;;;;276.87;118.03;;;-0.70;99.90;;;;;;5091371;28;20144;-64
2022/01/24 02:59:31;;;;;;;263.27;112.33;;;-0.70;99.90;;;;;;5089394;28;20475;-64
2022/01/24 03:01:58;;;;;;;264.27;112.90;;;-0.70;99.90;;;;;;5094659;28;20083;-63
2022/01/24 03:04:24;;;;;;;288.55;117.25;;;-0.70;99.90;;;;;;5095236;28;20533;-64
2022/01/24 03:06:50;;;;;;;267.50;115.23;;;-0.60;99.90;;;;;;5094001;28;20223;-63
2022/01/24 03:09:23;;;;;;;275.65;119.13;;;-0.70;99.90;;;;;;5077348;28;20497;-63
2022/01/24 03:14:18;;;;;;;255.73;112.77;;;-0.90;99.90;;;;;;5092777;28;20501;-63
2022/01/24 03:16:44;;;;;;;255.50;114.63;;;-0.70;99.90;;;;;;5093398;28;20036;-63
2022/01/24 03:19:16;;;;;;;243.70;110.07;;;-0.70;99.90;;;;;;5095748;28;20085;-64
2022/01/24 03:21:43;;;;;;;248.60;110.90;;;-0.60;99.90;;;;;;5092123;28;20047;-63
2022/01/24 03:24:10;;;;;;;253.20;110.43;;;-0.70;99.90;;;;;;5093832;28;20060;-63
2022/01/24 03:26:37;;;;;;;254.47;104.00;;;-0.90;99.90;;;;;;5075458;28;20036;-62
2022/01/24 03:29:03;;;;;;;256.10;107.37;;;-0.80;99.90;;;;;;5093219;28;20036;-62
2022/01/24 03:31:30;;;;;;;279.30;118.90;;;-0.80;99.90;;;;;;5092497;28;20111;-63
2022/01/24 03:33:56;;;;;;;281.00;118.47;;;-0.70;99.90;;;;;;5092887;28;20067;-64
2022/01/24 03:36:22;;;;;;;287.33;120.63;;;-0.70;99.90;;;;;;5072635;28;20402;-62
2022/01/24 03:38:48;;;;;;;272.80;122.63;;;-0.80;99.90;;;;;;5098589;28;20097;-64
2022/01/24 03:42:14;;;;;;;280.77;123.27;;;-1.00;99.90;;;;;;5093939;28;20048;-65
2022/01/24 03:44:44;;;;;;;276.53;118.93;;;-1.00;99.90;;;;;;5077527;28;20044;-64
2022/01/24 03:48:02;;;;;;;273.30;116.07;;;-0.80;99.90;;;;;;5086786;28;20044;-64
2022/01/24 03:50:00;;;;;;;264.47;116.63;;;-0.90;99.90;;;;;;5084007;28;20390;-63
2022/01/24 03:55:48;;;;;;;274.93;118.00;;;-0.70;99.90;;;;;;5085622;28;20097;-62
2022/01/24 03:58:15;;;;;;;271.30;117.97;;;-1.00;99.90;;;;;;5071893;28;20346;-62
2022/01/24 04:00:41;;;;;;;264.73;122.47;;;-0.80;99.90;;;;;;5091202;28;20112;-63
2022/01/24 04:03:07;;;;;;;268.90;117.07;;;-1.00;99.90;;;;;;5091035;28;20048;-63
2022/01/24 04:05:34;;;;;;;250.53;113.03;;;-0.80;99.90;;;;;;5073037;28;20055;-64
2022/01/24 04:08:01;;;;;;;269.57;120.13;;;-0.60;99.90;;;;;;5087546;28;20642;-63
2022/01/24 04:10:28;;;;;;;255.13;118.20;;;-0.70;99.90;;;;;;5091786;28;20038;-63
2022/01/24 04:12:54;;;;;;;198.97;97.20;;;-0.60;99.90;;;;;;5091674;28;20027;-65
2022/01/24 04:15:45;;;;;;;200.43;93.93;;;-0.70;99.90;;;;;;5091840;28;20075;-66
2022/01/24 04:23:39;;;;;;;193.10;94.50;;;-0.80;99.90;;;;;;5090373;28;20090;-65
2022/01/24 04:26:05;;;;;;;193.73;94.60;;;-0.50;99.90;;;;;;5074347;28;20486;-63
2022/01/24 04:28:31;;;;;;;176.10;89.07;;;-0.70;99.90;;;;;;5088684;28;20134;-65
2022/01/24 04:30:58;;;;;;;189.63;93.67;;;-0.60;99.90;;;;;;5069945;28;20043;-64
2022/01/24 04:33:24;;;;;;;176.53;89.53;;;-0.50;99.90;;;;;;5070664;28;20160;-64
2022/01/24 04:35:50;;;;;;;166.70;84.57;;;-0.40;99.90;;;;;;5085169;28;20043;-64
2022/01/24 04:38:17;;;;;;;159.13;88.70;;;-0.10;99.90;;;;;;5069933;28;20120;-64
2022/01/24 04:40:43;;;;;;;172.45;90.32;;;0.00;99.90;;;;;;5089179;28;20036;-64
2022/01/24 04:56:53;;;;;;;162.23;82.57;;;0.20;99.90;;;;;;5088923;28;20106;-64
2022/01/24 04:59:19;;;;;;;165.00;84.20;;;0.10;99.90;;;;;;5090618;28;20489;-64
2022/01/24 05:01:45;;;;;;;175.05;89.07;;;0.00;99.90;;;;;;5088919;28;20090;-63
2022/01/24 05:04:11;;;;;;;179.38;88.38;;;0.20;99.90;;;;;;5088953;28;20044;-63
2022/01/24 05:06:37;;;;;;;167.10;86.10;;;0.20;99.90;;;;;;5088807;28;20492;-62
2022/01/24 05:09:05;;;;;;;175.07;91.00;;;0.30;99.90;;;;;;5090134;28;20534;-64
2022/01/24 05:11:38;;;;;;;186.07;92.80;;;0.20;99.90;;;;;;5087588;28;20028;-63
2022/01/24 05:24:46;;;;;;;213.38;101.10;;;0.40;99.90;;;;;;5091343;28;20036;-64
2022/01/24 05:27:12;;;;;;;215.05;103.88;;;0.20;99.90;;;;;;5068924;28;20044;-62
2022/01/24 05:29:38;;;;;;;211.77;101.82;;;0.10;99.90;;;;;;5070341;28;20064;-64
2022/01/24 05:32:08;;;;;;;211.02;100.55;;;0.20;99.90;;;;;;5071652;28;20051;-63
2022/01/24 05:34:35;;;;;;;227.43;105.30;;;0.20;99.90;;;;;;5073215;28;20044;-63
2022/01/24 05:37:01;;;;;;;224.23;106.05;;;0.30;99.90;;;;;;5089980;28;20047;-62
2022/01/24 05:39:27;;;;;;;221.55;101.53;;;0.30;99.90;;;;;;5073072;28;20066;-63
2022/01/24 05:41:54;;;;;;;222.88;103.28;;;0.10;99.90;;;;;;5087500;28;20086;-63
2022/01/24 05:44:20;;;;;;;177.82;90.90;;;0.40;99.90;;;;;;5087553;28;20043;-64
2022/01/24 05:46:46;;;;;;;162.82;79.55;;;0.60;99.90;;;;;;5088687;28;20033;-64
2022/01/24 05:49:12;;;;;;;161.88;77.78;;;0.60;99.90;;;;;;5076163;28;20919;-63
2022/01/24 05:51:38;;;;;;;159.98;78.78;;;0.60;99.90;;;;;;5087999;28;20032;-64
2022/01/24 05:54:04;;;;;;;187.93;88.85;;;0.90;99.90;;;;;;5087479;28;20111;-63
2022/01/24 05:56:30;;;;;;;172.13;84.28;;;0.60;99.90;;;;;;5088691;28;20040;-63
2022/01/24 05:58:56;;;;;;;170.18;85.82;;;0.70;99.90;;;;;;5088663;28;20076;-64
2022/01/24 06:01:22;;;;;;;164.93;82.47;;;0.90;99.90;;;;;;5071164;28;20032;-63
2022/01/24 06:03:50;;;;;;;163.60;81.10;;;1.10;99.90;;;;;;5088281;28;20044;-64
2022/01/24 06:06:16;;;;;;;160.27;82.47;;;1.10;99.90;;;;;;5087814;28;20055;-64
2022/01/24 06:08:42;;;;;;;175.32;86.47;;;1.10;99.90;;;;;;5088731;28;20460;-63
2022/01/24 06:11:09;;;;;;;172.15;85.18;;;1.30;99.90;;;;;;5088678;28;20043;-65
2022/01/24 06:13:35;;;;;;;172.43;85.93;;;1.30;99.90;;;;;;5087957;28;20064;-66
2022/01/24 06:16:01;;;;;;;175.68;91.45;;;1.40;99.90;;;;;;5088152;28;20455;-65
2022/01/24 06:18:27;;;;;;;182.07;89.68;;;1.30;99.90;;;;;;5088012;28;20386;-64
2022/01/24 06:20:54;;;;;;;166.82;85.43;;;1.30;99.90;;;;;;5075314;28;20457;-67
2022/01/24 06:23:21;;;;;;;157.52;79.25;;;1.40;99.90;;;;;;5088181;28;20055;-63
2022/01/24 06:25:48;;;;;;;149.32;76.28;;;1.60;99.90;;;;;;5069550;28;20059;-63
2022/01/24 06:28:14;;;;;;;140.95;70.03;;;1.50;99.90;;;;;;5089891;28;20032;-64
2022/01/24 06:30:41;;;;;;;127.45;67.35;;;1.60;99.90;;;;;;5071909;28;20496;-63
2022/01/24 06:33:07;;;;;;;129.43;62.70;;;1.60;99.90;;;;;;5091298;28;20047;-65
2022/01/24 06:35:33;;;;;;;110.22;55.33;;;1.50;99.90;;;;;;5074095;28;20134;-63
2022/01/24 06:38:00;;;;;;;113.60;56.95;;;1.70;99.90;;;;;;5094187;28;20375;-62
2022/01/24 06:40:26;;;;;;;95.22;50.88;;;1.70;99.90;;;;;;5073022;28;20088;-63
2022/01/24 06:42:52;;;;;;;91.90;48.28;;;1.60;99.90;;;;;;5093511;28;20040;-63
2022/01/24 06:45:18;;;;;;;68.95;35.42;;;1.60;99.90;;;;;;5079657;28;20040;-63
2022/01/24 06:47:44;;;;;;;74.20;41.17;;;1.50;99.90;;;;;;5090798;28;20039;-63
2022/01/24 06:50:11;;;;;;;101.55;49.63;;;1.20;99.90;;;;;;5091080;28;20036;-62
2022/01/24 06:52:37;;;;;;;92.82;47.47;;;1.40;99.90;;;;;;5092870;28;20032;-64
2022/01/24 06:55:04;;;;;;;91.28;44.15;;;1.60;99.90;;;;;;5093676;28;20040;-63
2022/01/24 06:57:30;;;;;;;93.45;45.35;;;1.60;99.90;;;;;;5077424;28;20115;-65
2022/01/24 06:59:56;;;;;;;81.70;39.63;;;1.50;99.90;;;;;;5086382;28;20604;-64
2022/01/24 07:02:23;;;;;;;76.65;39.05;;;1.70;99.90;;;;;;5086982;28;20148;-63
2022/01/24 07:04:49;;;;;;;93.05;46.28;;;1.40;99.90;;;;;;5090473;28;20040;-63
2022/01/24 07:07:15;;;;;;;84.03;42.38;;;1.40;99.90;;;;;;5088852;28;20085;-64
2022/01/24 07:09:42;;;;;;;61.35;33.55;;;1.40;99.90;;;;;;5090302;28;20086;-62
2022/01/24 07:12:09;;;;;;;80.57;40.80;;;1.60;99.90;;;;;;5091566;28;20097;-63
2022/01/24 07:14:36;;;;;;;69.53;37.55;;;1.60;99.90;;;;;;5090801;28;20086;-64
2022/01/24 07:19:31;;;;;;;81.85;42.78;;;1.70;99.90;;;;;;5075509;28;20032;-64
2022/01/24 07:21:59;;;;;;;83.97;42.88;;;1.80;99.90;;;;;;5092038;28;20090;-63
2022/01/24 07:24:26;;;;;;;74.90;38.92;;;2.00;99.90;;;;;;5092387;28;20036;-64
2022/01/24 07:26:52;;;;;;;93.22;43.08;;;1.80;99.90;;;;;;5092716;28;20115;-63
2022/01/24 07:29:19;;;;;;;94.28;45.72;;;2.00;99.90;;;;;;5090500;28;20077;-63
2022/01/24 07:31:49;;;;;;;93.35;45.17;;;2.30;99.90;;;;;;5068771;28;20032;-64
2022/01/24 07:34:16;;;;;;;95.35;47.10;;;2.30;99.90;;;;;;5091444;28;20032;-63
2022/01/24 07:36:44;;;;;;;103.45;49.40;;;2.60;99.90;;;;;;5090362;28;20123;-64
2022/01/24 07:39:10;;;;;;;102.60;49.60;;;1.90;99.90;;;;;;5088280;28;20554;-64
2022/01/24 07:41:43;;;;;;;91.43;44.28;;;1.90;99.90;;;;;;5089681;28;20059;-63
2022/01/24 07:44:10;;;;;;;101.05;49.88;;;2.30;99.90;;;;;;5091135;28;20035;-63
2022/01/24 07:46:36;;;;;;;93.65;47.40;;;2.60;99.90;;;;;;5093245;28;20031;-64
2022/01/24 07:49:04;;;;;;;78.80;42.92;;;2.40;99.90;;;;;;5092149;28;20048;-64
2022/01/24 07:51:30;;;;;;;75.57;39.10;;;2.40;99.90;;;;;;5090245;28;20039;-63
2022/01/24 07:53:56;;;;;;;86.85;40.95;;;2.10;99.90;;;;;;5090437;28;20044;-64
2022/01/24 07:56:23;;;;;;;81.30;42.92;;;1.80;99.90;;;;;;5092692;28;20486;-65
2022/01/24 07:58:50;;;;;;;85.05;44.00;;;2.30;99.90;;;;;;5091685;28;20044;-65
2022/01/24 08:01:16;;;;;;;107.88;53.17;;;2.40;99.90;;;;;;5088013;28;20036;-65
2022/01/24 08:03:43;;;;;;;100.95;54.70;;;2.20;99.90;;;;;;5088633;28;20048;-65
2022/01/24 08:06:09;;;;;;;107.18;52.80;;;2.10;99.90;;;;;;5090617;28;20085;-64
2022/01/24 08:08:36;;;;;;;112.20;56.15;;;2.00;99.90;;;;;;5091697;28;20028;-63
2022/01/24 08:11:02;;;;;;;108.18;56.58;;;2.00;99.90;;;;;;5092499;28;20032;-63
2022/01/24 08:13:28;;;;;;;96.65;55.28;;;2.10;99.90;;;;;;5091597;28;20039;-64
2022/01/24 08:15:54;;;;;;;114.50;57.85;;;1.70;99.90;;;;;;5088594;28;20676;-65
2022/01/24 08:18:21;;;;;;;106.82;53.20;;;1.70;99.90;;;;;;5090622;28;20119;-64
2022/01/24 08:20:47;;;;;;;99.07;52.83;;;1.30;99.90;;;;;;5090442;28;20169;-64
2022/01/24 08:23:15;;;;;;;100.88;52.45;;;1.50;99.90;;;;;;5092726;28;20109;-64
2022/01/24 08:25:41;;;;;;;96.90;50.75;;;1.60;99.90;;;;;;5090018;28;20142;-65
2022/01/24 08:28:07;;;;;;;105.25;52.03;;;1.60;99.90;;;;;;5089590;28;20043;-64
2022/01/24 08:30:33;;;;;;;96.13;51.05;;;1.70;99.90;;;;;;5090444;28;20124;-64
2022/01/24 08:33:00;;;;;;;106.95;54.92;;;1.60;99.90;;;;;;5092293;28;20084;-64
2022/01/24 08:35:26;;;;;;;92.57;52.15;;;1.60;99.90;;;;;;5089885;28;20043;-64
2022/01/24 08:37:52;;;;;;;95.65;53.35;;;1.60;99.90;;;;;;5091705;28;20128;-63
2022/01/24 08:40:24;;;;;;;100.40;55.65;;;1.80;99.90;;;;;;5090926;28;20462;-64
2022/01/24 08:42:59;;;;;;;98.20;54.45;;;1.70;99.90;;;;;;5070979;28;20044;-64
2022/01/24 08:48:08;;;;;;;100.65;57.05;;;1.60;99.90;;;;;;5088050;28;20480;-63
2022/01/24 08:50:34;;;;;;;113.55;58.80;;;1.70;99.90;;;;;;5071701;28;20039;-63
2022/01/24 08:53:03;;;;;;;98.55;56.25;;;1.80;99.90;;;;;;5091977;28;20094;-64
2022/01/24 08:55:34;;;;;;;99.57;57.42;;;1.90;99.90;;;;;;5088430;28;20089;-64
2022/01/24 08:58:01;;;;;;;96.63;55.83;;;2.00;99.90;;;;;;5074407;28;20157;-63
2022/01/24 09:00:28;;;;;;;101.97;55.92;;;2.00;99.90;;;;;;5072880;28;20177;-63
2022/01/24 09:02:54;;;;;;;96.30;54.90;;;2.00;99.90;;;;;;5072338;28;20066;-65
2022/01/24 09:05:22;;;;;;;96.38;55.35;;;2.10;99.90;;;;;;5072345;28;20047;-63
2022/01/24 09:07:49;;;;;;;90.20;51.45;;;2.30;99.90;;;;;;5089960;28;20278;-64
2022/01/24 09:10:16;;;;;;;81.68;48.13;;;2.20;99.90;;;;;;5061758;28;20557;-64
2022/01/24 09:12:42;;;;;;;79.90;46.50;;;2.20;99.90;;;;;;5090538;28;20494;-65
2022/01/24 09:15:09;;;;;;;74.85;45.47;;;2.00;99.90;;;;;;5089482;28;20097;-64
2022/01/24 09:17:35;;;;;;;79.18;44.38;;;2.20;99.90;;;;;;5087194;28;20040;-64
2022/01/24 09:20:02;;;;;;;79.70;45.60;;;2.00;99.90;;;;;;5072057;28;20066;-64
2022/01/24 09:22:28;;;;;;;75.45;43.42;;;2.00;99.90;;;;;;5086777;28;20044;-63
2022/01/24 09:24:54;;;;;;;68.20;41.63;;;1.90;99.90;;;;;;5086077;28;20044;-64
2022/01/24 09:27:20;;;;;;;74.63;42.17;;;1.80;99.90;;;;;;5088108;28;20043;-62
2022/01/24 09:29:48;;;;;;;71.13;44.38;;;2.00;99.90;;;;;;5082268;28;20032;-64
2022/01/24 09:32:14;;;;;;;75.82;42.97;;;2.10;99.90;;;;;;5086161;28;20393;-63
2022/01/24 09:34:40;;;;;;;70.40;42.13;;;1.90;99.90;;;;;;5069972;28;20126;-62
2022/01/24 09:37:07;;;;;;;75.30;46.38;;;1.90;99.90;;;;;;5086298;28;20048;-64
2022/01/24 09:39:34;;;;;;;83.38;44.92;;;1.80;99.90;;;;;;5065647;28;20047;-64
2022/01/24 09:42:00;;;;;;;75.85;43.15;;;1.80;99.90;;;;;;5055593;28;20420;-64
2022/01/24 09:44:27;;;;;;;79.20;43.30;;;1.90;99.90;;;;;;5083783;28;20077;-63
2022/01/24 09:46:53;;;;;;;78.03;44.92;;;2.20;99.90;;;;;;5087628;28;20040;-63
2022/01/24 09:49:19;;;;;;;77.75;44.60;;;2.10;99.90;;;;;;5086514;28;20028;-63
2022/01/24 09:51:45;;;;;;;75.75;44.15;;;1.90;99.90;;;;;;5088603;28;20119;-63
2022/01/24 09:54:12;;;;;;;78.18;46.03;;;1.80;99.90;;;;;;5089402;28;20032;-66
2022/01/24 09:56:39;;;;;;;78.57;46.90;;;1.90;99.90;;;;;;5086559;28;20489;-65
2022/01/24 09:59:06;;;;;;;76.25;46.03;;;1.70;99.90;;;;;;5088372;28;20370;-64
2022/01/24 10:01:33;;;;;;;77.93;45.35;;;1.40;99.90;;;;;;5088663;28;20036;-63
2022/01/24 10:04:20;;;;;;;74.20;45.85;;;1.20;99.90;;;;;;5076519;28;20506;-64
2022/01/24 10:07:04;;;;;;;79.03;46.83;;;1.30;99.90;;;;;;5079053;28;20119;-64
2022/01/24 10:09:37;;;;;;;74.93;46.85;;;1.30;99.90;;;;;;5080801;28;20025;-62
2022/01/24 10:17:43;;;;;;;82.35;47.20;;;1.50;99.90;;;;;;5083197;28;20050;-63
2022/01/24 10:20:17;;;;;;;83.40;49.65;;;1.50;99.90;;;;;;5080175;28;20040;-64
2022/01/24 10:23:05;;;;;;;86.65;51.95;;;1.50;99.90;;;;;;5080696;28;20043;-66
2022/01/24 10:25:43;;;;;;;83.35;50.65;;;1.50;99.90;;;;;;5076220;28;20086;-64
2022/01/24 10:28:10;;;;;;;82.93;53.30;;;1.40;99.90;;;;;;5073660;28;20036;-63
2022/01/24 10:30:36;;;;;;;85.38;52.97;;;1.60;99.90;;;;;;5079462;28;20044;-63
2022/01/24 10:33:04;;;;;;;87.55;53.67;;;1.40;99.90;;;;;;5077577;28;20028;-63
2022/01/24 10:35:46;;;;;;;94.10;52.88;;;1.40;99.90;;;;;;5075509;28;20029;-64
2022/01/24 10:38:41;;;;;;;88.25;53.47;;;1.40;99.90;;;;;;5076481;28;20448;-63
2022/01/24 10:43:46;;;;;;;82.38;49.80;;;1.30;99.90;;;;;;5078946;28;20033;-63
2022/01/24 10:46:13;;;;;;;81.80;49.78;;;1.20;99.90;;;;;;5076613;28;20043;-64
2022/01/24 10:48:44;;;;;;;87.18;53.30;;;1.10;99.90;;;;;;5074513;28;20172;-62
2022/01/24 10:51:17;;;;;;;89.65;51.72;;;1.10;99.90;;;;;;5077750;28;20037;-64
2022/01/24 10:53:46;;;;;;;90.30;53.42;;;0.90;99.90;;;;;;5075026;28;20059;-62
2022/01/24 10:56:34;;;;;;;97.10;53.70;;;0.90;99.90;;;;;;5076787;28;20399;-63
2022/01/24 10:59:04;;;;;;;91.90;52.63;;;0.90;99.90;;;;;;5072839;28;20125;-64
2022/01/24 11:01:31;;;;;;;92.90;54.90;;;0.90;99.90;;;;;;5075107;28;20060;-63
2022/01/24 11:04:06;;;;;;;97.97;54.10;;;0.90;99.90;;;;;;5055139;28;20052;-63
2022/01/24 11:06:40;;;;;;;99.75;55.42;;;1.00;99.90;;;;;;5077092;28;20510;-63
2022/01/24 11:09:25;;;;;;;98.95;55.17;;;1.00;99.90;;;;;;5072901;28;20028;-63
2022/01/24 11:12:02;;;;;;;98.32;57.97;;;1.00;99.90;;;;;;5054992;28;20041;-62
2022/01/24 11:14:31;;;;;;;96.78;56.25;;;0.90;99.90;;;;;;5052576;28;20040;-62
2022/01/24 11:16:59;;;;;;;102.65;58.42;;;0.80;99.90;;;;;;5072605;28;20405;-63
2022/01/24 11:21:53;;;;;;;106.35;60.30;;;0.80;99.90;;;;;;5071444;28;20317;-62
2022/01/24 11:24:27;;;;;;;117.60;63.97;;;0.90;99.90;;;;;;5054704;28;20064;-62
2022/01/24 11:26:53;;;;;;;115.25;65.88;;;0.90;99.90;;;;;;5076201;28;20094;-63
2022/01/24 11:29:20;;;;;;;129.60;70.20;;;1.00;99.90;;;;;;5060897;28;20161;-62
2022/01/24 11:32:24;;;;;;;128.70;70.05;;;0.90;99.90;;;;;;5075813;28;20032;-63
2022/01/24 11:34:53;;;;;;;127.80;69.80;;;0.90;99.90;;;;;;5073646;28;20043;-63
2022/01/24 11:37:33;;;;;;;125.68;70.28;;;0.80;99.90;;;;;;5071182;28;20102;-62
2022/01/24 11:40:02;;;;;;;113.57;62.00;;;0.80;99.90;;;;;;5070962;28;20041;-63
2022/01/24 11:42:34;;;;;;;108.55;58.28;;;0.70;99.90;;;;;;5071665;28;20496;-62
2022/01/24 11:45:05;;;;;;;101.75;57.65;;;0.60;99.90;;;;;;5073026;28;20467;-62
2022/01/24 11:47:32;;;;;;;99.80;54.00;;;0.60;99.90;;;;;;5072575;28;20080;-63
2022/01/24 11:49:59;;;;;;;98.22;53.03;;;0.50;99.90;;;;;;5074585;28;20033;-63
2022/01/24 11:52:33;;;;;;;91.95;49.92;;;0.50;99.90;;;;;;5069385;28;20059;-64
2022/01/24 11:55:15;;;;;;;95.47;51.97;;;0.30;99.90;;;;;;5071713;28;20028;-63
2022/01/24 11:57:49;;;;;;;91.60;51.10;;;0.30;99.90;;;;;;5073994;28;20035;-63
2022/01/24 12:00:16;;;;;;;91.22;49.40;;;0.10;99.90;;;;;;5071161;28;20146;-63
2022/01/24 12:02:53;;;;;;;90.88;50.13;;;0.00;99.90;;;;;;5079582;28;20063;-62
2022/01/24 12:05:29;;;;;;;98.80;51.55;;;-0.10;99.90;;;;;;5091231;28;20040;-63
2022/01/24 12:08:07;;;;;;;93.60;50.17;;;-0.20;99.90;;;;;;5091718;28;20070;-64
2022/01/24 12:10:35;;;;;;;95.65;52.33;;;-0.20;99.90;;;;;;5061973;28;20046;-65
2022/01/24 12:13:03;;;;;;;94.80;51.35;;;-0.10;99.90;;;;;;5087630;28;20043;-62
2022/01/24 12:15:41;;;;;;;105.70;55.25;;;-0.10;99.90;;;;;;5082869;28;21010;-64
2022/01/24 12:18:27;;;;;;;100.72;55.75;;;-0.10;99.90;;;;;;5079065;28;20036;-63
2022/01/24 12:21:05;;;;;;;119.72;60.17;;;-0.10;99.90;;;;;;5075584;28;20036;-63
2022/01/24 12:23:34;;;;;;;120.75;62.10;;;-0.30;99.90;;;;;;5092404;28;20032;-63
2022/01/24 12:26:05;;;;;;;132.38;72.20;;;-0.20;99.90;;;;;;5073245;28;20039;-63
2022/01/24 12:28:46;;;;;;;124.03;67.45;;;-0.20;99.90;;;;;;5090252;28;20440;-63
2022/01/24 12:31:21;;;;;;;122.75;64.53;;;-0.20;99.90;;;;;;5081071;28;20099;-63
2022/01/24 12:33:53;;;;;;;126.30;64.28;;;-0.20;99.90;;;;;;5092110;28;20482;-64
2022/01/24 12:36:38;;;;;;;138.15;66.32;;;-0.30;99.90;;;;;;5089925;28;20491;-65
2022/01/24 12:39:25;;;;;;;129.88;63.95;;;-0.40;99.90;;;;;;5074404;28;20050;-65
2022/01/24 12:41:58;;;;;;;137.60;62.50;;;-0.40;99.90;;;;;;5088808;28;20036;-65
2022/01/24 12:47:10;;;;;;;129.98;66.63;;;-0.60;99.90;;;;;;5091551;28;20093;-66
2022/01/24 12:49:37;;;;;;;130.98;65.80;;;-0.60;99.90;;;;;;5087346;28;20060;-65
2022/01/24 12:52:12;;;;;;;137.18;69.53;;;-0.50;99.90;;;;;;5090859;28;20060;-64
2022/01/24 12:54:52;;;;;;;144.93;70.57;;;-0.70;99.90;;;;;;5093806;28;20077;-65
2022/01/24 12:57:21;;;;;;;146.40;70.07;;;-0.70;99.90;;;;;;5101410;28;20040;-63
2022/01/24 12:59:53;;;;;;;155.03;72.80;;;-0.80;99.90;;;;;;5086831;28;20028;-65
2022/01/24 13:02:24;;;;;;;141.80;71.53;;;-0.80;99.90;;;;;;5092637;28;20058;-64
2022/01/24 13:04:52;;;;;;;147.35;70.45;;;-0.80;99.90;;;;;;5075257;28;20036;-64
2022/01/24 13:07:19;;;;;;;152.77;72.63;;;-0.80;99.90;;;;;;5074709;28;20048;-65
2022/01/24 13:09:45;;;;;;;162.15;75.65;;;-0.80;99.90;;;;;;5070965;28;20037;-65
2022/01/24 13:12:14;;;;;;;147.50;75.43;;;-0.80;99.90;;;;;;5076436;28;20052;-64
2022/01/24 13:22:51;;;;;;;157.07;74.50;;;-0.90;99.90;;;;;;5077627;28;20094;-63
2022/01/24 13:25:26;;;;;;;162.57;76.33;;;-0.90;99.90;;;;;;5070934;28;20082;-64
2022/01/24 13:27:54;;;;;;;161.60;78.73;;;-0.90;99.90;;;;;;5067994;28;20041;-64
2022/01/24 13:30:24;;;;;;;167.00;79.10;;;-0.80;99.90;;;;;;5060855;28;20051;-64
2022/01/24 13:32:56;;;;;;;175.10;81.90;;;-0.80;99.90;;;;;;5086721;28;20035;-63
2022/01/24 13:35:30;;;;;;;155.40;75.23;;;-0.70;99.90;;;;;;5077960;28;20111;-64
2022/01/24 13:38:05;;;;;;;152.10;71.70;;;-0.90;99.90;;;;;;5035889;28;20049;-64
2022/01/24 13:40:53;;;;;;;156.43;75.83;;;-0.90;99.90;;;;;;5078919;28;20036;-64
2022/01/24 13:43:37;;;;;;;162.20;76.03;;;-1.00;99.90;;;;;;5079183;28;20048;-65
2022/01/24 13:46:13;;;;;;;173.40;80.70;;;-1.20;99.90;;;;;;5087551;28;20033;-64
2022/01/24 13:48:47;;;;;;;165.73;79.63;;;-1.00;99.90;;;;;;5080196;28;20028;-64
2022/01/24 13:51:18;;;;;;;159.03;74.43;;;-0.90;99.90;;;;;;5060068;28;20036;-64
2022/01/24 13:53:47;;;;;;;161.67;75.73;;;-0.90;99.90;;;;;;5064693;28;20032;-65
2022/01/24 13:56:24;;;;;;;163.40;77.60;;;-0.80;99.90;;;;;;5063846;28;20370;-65
2022/01/24 13:59:06;;;;;;;165.97;75.03;;;-0.80;99.90;;;;;;5078199;28;20033;-63
2022/01/24 14:01:34;;;;;;;169.17;80.93;;;-0.70;99.90;;;;;;5072049;28;20351;-63
2022/01/24 14:04:08;;;;;;;166.00;78.93;;;-0.80;99.90;;;;;;5072152;28;20040;-63
2022/01/24 14:06:37;;;;;;;155.30;73.77;;;-0.70;99.90;;;;;;5053596;28;20086;-63
2022/01/24 14:09:08;;;;;;;157.00;72.50;;;-0.80;99.90;;;;;;5071759;28;20041;-65
2022/01/24 14:11:41;;;;;;;150.77;70.93;;;-0.70;99.90;;;;;;5072320;28;20116;-64
2022/01/24 14:14:11;;;;;;;170.83;75.40;;;-0.70;99.90;;;;;;5072056;28;20028;-65
2022/01/24 14:16:55;;;;;;;168.73;74.37;;;-0.80;99.90;;;;;;5072199;28;20033;-63
2022/01/24 14:19:35;;;;;;;169.23;74.90;;;-0.60;99.90;;;;;;5053585;28;20044;-63
2022/01/24 14:22:06;;;;;;;152.40;71.60;;;-0.60;99.90;;;;;;5052701;28;20052;-64
2022/01/24 14:24:54;;;;;;;157.07;71.27;;;-0.60;99.90;;;;;;5071623;28;20036;-64
2022/01/24 14:27:52;;;;;;;157.47;71.87;;;-0.70;99.90;;;;;;5071503;28;20024;-63
2022/01/24 14:30:21;;;;;;;161.37;72.20;;;-0.50;99.90;;;;;;5071002;28;20066;-64
2022/01/24 14:33:11;;;;;;;145.30;70.67;;;-0.60;99.90;;;;;;5063996;28;20483;-65
2022/01/24 14:35:54;;;;;;;147.53;72.07;;;-0.50;99.90;;;;;;5071601;28;20028;-64
2022/01/24 14:38:39;;;;;;;150.63;69.40;;;-0.50;99.90;;;;;;5057092;28;20388;-64
2022/01/24 14:41:08;;;;;;;149.43;70.47;;;-0.50;99.90;;;;;;5053935;28;20040;-63
2022/01/24 14:46:24;;;;;;;164.38;74.97;;;-0.60;99.90;;;;;;5071964;28;20119;-65
2022/01/24 14:49:08;;;;;;;167.45;79.55;;;-0.50;99.90;;;;;;5071065;28;20025;-64
2022/01/24 14:51:37;;;;;;;157.43;77.85;;;-0.50;99.90;;;;;;5070508;28;20106;-64